createdAt,value
2022-11-30T00:04:22.631Z,92.1
2022-11-30T00:20:05.677Z,92.11
2022-11-30T00:35:47.881Z,91.94
2022-11-30T00:51:30.523Z,91.95
2022-11-30T01:07:12.685Z,91.89
2022-11-30T01:22:55.779Z,91.88
2022-11-30T01:38:37.943Z,91.97
2022-11-30T01:54:20.211Z,91.9
2022-11-30T02:10:03.207Z,91.87
2022-11-30T02:25:45.365Z,91.83
2022-11-30T02:41:28.107Z,91.69
2022-11-30T02:57:10.508Z,91.75
2022-11-30T03:12:53.209Z,91.71
2022-11-30T03:28:35.950Z,91.7
2022-11-30T03:44:19.080Z,91.61
2022-11-30T04:00:01.400Z,91.62
2022-11-30T04:15:43.932Z,91.75
2022-11-30T04:31:26.525Z,91.77
2022-11-30T04:47:09.021Z,91.59
2022-11-30T05:02:52.128Z,91.7
2022-11-30T05:18:35.114Z,91.49
2022-11-30T05:34:17.405Z,91.46
2022-11-30T05:50:00.020Z,91.39
2022-11-30T06:05:42.349Z,91.42
2022-11-30T06:21:25.294Z,91.6
2022-11-30T06:37:07.598Z,91.41
2022-11-30T06:52:49.780Z,91.95
2022-11-30T07:08:32.256Z,90.78
2022-11-30T07:24:14.669Z,90.54
2022-11-30T07:39:57.733Z,90.38
2022-11-30T07:55:40.475Z,90.19
2022-11-30T08:11:22.761Z,90.02
2022-11-30T08:27:05.086Z,88.69
2022-11-30T08:42:47.786Z,87.59
2022-11-30T08:58:30.409Z,87.32
2022-11-30T09:14:13.033Z,86.09
2022-11-30T09:29:55.609Z,83.71
2022-11-30T09:45:37.811Z,81.84
2022-11-30T10:01:20.697Z,80.37
2022-11-30T10:17:03.219Z,81.54
2022-11-30T10:32:46.094Z,76.72
2022-11-30T10:48:28.231Z,75.17
2022-11-30T11:04:10.972Z,73.98
2022-11-30T11:19:53.118Z,70.74
2022-11-30T11:35:35.309Z,70.17
2022-11-30T11:51:17.989Z,70.29
2022-11-30T12:07:00.301Z,69.6
2022-11-30T12:22:42.413Z,69.87
2022-11-30T12:38:25.049Z,66.79
2022-11-30T12:54:07.745Z,65.92
2022-11-30T13:09:50.511Z,68.66
2022-11-30T13:25:33.434Z,72.45
2022-11-30T13:41:15.864Z,75.24
2022-11-30T13:56:58.204Z,77.69
2022-11-30T14:12:41.211Z,81.25
2022-11-30T14:28:23.883Z,83.69
2022-11-30T14:44:06.113Z,87
2022-11-30T14:59:49.317Z,89.02
2022-11-30T15:15:32.238Z,86.62
2022-11-30T15:31:14.485Z,89.67
2022-11-30T15:46:56.889Z,89.37
2022-11-30T16:02:39.821Z,89.45
2022-11-30T16:18:22.805Z,90.09
2022-11-30T16:34:05.587Z,90.44
2022-11-30T16:49:48.538Z,90.92
2022-11-30T17:05:30.774Z,91.42
2022-11-30T17:06:18.208Z,91.39
2022-11-30T17:22:01.274Z,91.29
2022-11-30T17:37:43.990Z,91.87
2022-11-30T17:53:26.247Z,91.5
2022-11-30T18:09:09.237Z,91.47
2022-11-30T18:24:51.720Z,91.01
2022-11-30T18:40:34.495Z,91.21
2022-11-30T18:56:17.614Z,91.46
2022-11-30T19:11:59.832Z,91.61
2022-11-30T19:27:42.871Z,91.77
2022-11-30T19:43:25.844Z,92.41
2022-11-30T19:59:08.190Z,92.38
2022-11-30T20:14:50.508Z,92.44
2022-11-30T20:30:32.716Z,92.53
2022-11-30T20:46:15.324Z,92.6
2022-11-30T21:01:57.508Z,92.73
2022-11-30T21:17:39.966Z,93.47
2022-11-30T21:33:22.334Z,94.13
2022-11-30T21:49:05.375Z,94.08
2022-11-30T22:04:47.927Z,94.56
2022-11-30T22:20:30.678Z,94.36
2022-11-30T22:36:13.017Z,94.16
2022-11-30T22:51:55.771Z,93.84
2022-11-30T23:07:38.398Z,94.11
2022-11-30T23:23:21.403Z,94.11
2022-11-30T23:39:04.213Z,93.81
2022-11-30T23:54:47.312Z,93.71
